Time;durP1;ratioP1;P1;durP2;ratioP2;P2;SDS_P1;SDS_P2;PMS_P1;PMS_P2;Temp;Humidity;BMP_temperature;BMP_pressure;BME280_temperature;BME280_humidity;BME280_pressure;Samples;Min_cycle;Max_cycle;Signal;HPM_P1;HPM_P2
2023/07/28 05:49:27;;;;;;;9.50;8.50;;;;;;;;;;10593617;27;20484;-80
2023/07/28 06:00:09;;;;;;;9.20;7.68;;;;;;;;;;10628607;28;20388;-83
2023/07/28 06:11:05;;;;;;;5.20;4.70;;;;;;;;;;10621197;28;20023;-82
2023/07/28 06:16:32;;;;;;;4.10;3.70;;;;;;;;;;10532828;28;20039;-83
2023/07/28 06:22:15;;;;;;;5.10;3.85;;;;;;;;;;10548779;28;20158;-83
2023/07/28 06:27:56;;;;;;;4.55;3.88;;;;;;;;;;10569799;28;20074;-83
2023/07/28 06:32:57;;;;;;;3.83;3.45;;;;;;;;;;10565218;28;20028;-81
2023/07/28 06:38:02;;;;;;;3.50;3.20;;;;;;;;;;10570952;28;20039;-80
2023/07/28 06:43:03;;;;;;;3.92;3.53;;;;;;;;;;10570718;28;20069;-80
2023/07/28 06:48:30;;;;;;;8.07;6.13;;;;;;;;;;10582557;28;20044;-80
2023/07/28 06:53:43;;;;;;;5.38;4.88;;;;;;;;;;10570308;28;20020;-80
2023/07/28 06:59:13;;;;;;;4.90;4.30;;;;;;;;;;10566940;28;20024;-79
2023/07/28 07:04:33;;;;;;;5.25;4.75;;;;;;;;;;10559920;28;20032;-80
2023/07/28 07:10:03;;;;;;;5.43;4.88;;;;;;;;;;10647487;27;20025;-79
2023/07/28 07:20:30;;;;;;;6.63;5.90;;;;;;;;;;10644486;27;20027;-83
2023/07/28 07:31:24;;;;;;;6.30;5.70;;;;;;;;;;10643130;27;20031;-83
2023/07/28 07:36:56;;;;;;;8.43;7.63;;;;;;;;;;10641791;27;20038;-83
2023/07/28 07:41:58;;;;;;;9.15;8.25;;;;;;;;;;10595033;28;20057;-83
2023/07/28 07:47:16;;;;;;;11.90;10.70;;;;;;;;;;10603293;28;20051;-83
2023/07/28 07:52:49;;;;;;;21.27;17.42;;;;;;;;;;10654350;27;20043;-83
2023/07/28 07:58:10;;;;;;;11.80;10.60;;;;;;;;;;10601704;28;20031;-82
2023/07/28 08:03:17;;;;;;;16.00;14.30;;;;;;;;;;10640404;27;20038;-85
2023/07/28 08:08:19;;;;;;;17.88;15.98;;;;;;;;;;10636793;27;20488;-82
2023/07/28 08:13:33;;;;;;;11.38;10.27;;;;;;;;;;10642407;27;20484;-83
2023/07/28 08:24:37;;;;;;;12.18;10.93;;;;;;;;;;10516998;28;20024;-80
2023/07/28 08:29:44;;;;;;;20.60;18.48;;;;;;;;;;10508426;28;20028;-80
2023/07/28 08:35:23;;;;;;;16.85;15.18;;;;;;;;;;10569218;27;20565;-80
2023/07/28 08:40:46;;;;;;;12.85;11.45;;;;;;;;;;10590214;27;20031;-81
2023/07/28 08:46:27;;;;;;;13.15;11.85;;;;;;;;;;10617430;27;20041;-81
2023/07/28 08:57:16;;;;;;;14.88;13.38;;;;;;;;;;10429112;28;20045;-81
2023/07/28 09:02:27;;;;;;;13.45;12.05;;;;;;;;;;10579779;27;20035;-81
2023/07/28 09:07:56;;;;;;;12.77;11.57;;;;;;;;;;10633561;27;20024;-81
2023/07/28 09:18:27;;;;;;;10.85;9.57;;;;;;;;;;10620668;27;20427;-81
2023/07/28 09:29:30;;;;;;;10.02;9.02;;;;;;;;;;10637605;27;20098;-79
2023/07/28 09:34:50;;;;;;;9.50;8.43;;;;;;;;;;10614090;27;20036;-80
2023/07/28 09:40:11;;;;;;;9.32;8.13;;;;;;;;;;10617272;27;20031;-80
2023/07/28 09:45:17;;;;;;;8.10;7.00;;;;;;;;;;10615910;28;20038;-77
2023/07/28 09:50:19;;;;;;;8.25;6.95;;;;;;;;;;10609456;28;20019;-80
2023/07/28 09:55:31;;;;;;;7.13;6.43;;;;;;;;;;10617570;28;20046;-81
2023/07/28 10:00:33;;;;;;;6.18;5.57;;;;;;;;;;10650095;27;20034;-82
2023/07/28 10:05:35;;;;;;;6.50;5.90;;;;;;;;;;10621033;28;20039;-81
2023/07/28 10:10:36;;;;;;;8.70;7.75;;;;;;;;;;10630759;28;20027;-82
2023/07/28 10:15:39;;;;;;;5.25;4.72;;;;;;;;;;10632100;28;20033;-83
2023/07/28 10:20:49;;;;;;;5.30;4.38;;;;;;;;;;10615920;28;20095;-81
2023/07/28 10:26:05;;;;;;;6.88;6.25;;;;;;;;;;10613834;28;20031;-81
2023/07/28 10:31:22;;;;;;;5.65;4.45;;;;;;;;;;10633061;27;20068;-82
2023/07/28 10:36:26;;;;;;;4.68;4.28;;;;;;;;;;10621943;27;20038;-81
2023/07/28 10:41:28;;;;;;;5.60;5.10;;;;;;;;;;10641172;27;20019;-82
2023/07/28 10:46:32;;;;;;;6.43;5.82;;;;;;;;;;10623161;27;20055;-82
2023/07/28 10:51:39;;;;;;;6.30;5.70;;;;;;;;;;10622273;27;20035;-81
2023/07/28 10:56:45;;;;;;;5.97;5.38;;;;;;;;;;10647668;27;20090;-83
2023/07/28 11:01:49;;;;;;;4.90;4.45;;;;;;;;;;10634840;27;20034;-83
2023/07/28 11:06:52;;;;;;;5.43;4.65;;;;;;;;;;10646109;27;20396;-84
2023/07/28 11:11:53;;;;;;;5.03;4.63;;;;;;;;;;10604776;27;20059;-81
2023/07/28 11:17:21;;;;;;;5.00;4.50;;;;;;;;;;10636477;27;20080;-81
2023/07/28 11:22:32;;;;;;;4.75;3.30;;;;;;;;;;10601038;27;20023;-82
2023/07/28 11:27:47;;;;;;;3.95;3.60;;;;;;;;;;10622111;27;20034;-84
2023/07/28 11:32:55;;;;;;;5.75;4.97;;;;;;;;;;10602239;27;20031;-80
2023/07/28 11:38:04;;;;;;;4.32;3.92;;;;;;;;;;10615505;27;20388;-80
2023/07/28 11:43:16;;;;;;;4.40;4.00;;;;;;;;;;10624589;27;20016;-80
2023/07/28 11:48:23;;;;;;;4.80;4.30;;;;;;;;;;10617838;27;20492;-81
2023/07/28 11:53:33;;;;;;;5.28;4.78;;;;;;;;;;10623037;27;20035;-83
2023/07/28 13:01:24;;;;;;;2.50;2.30;;;;;;;;;;10587086;28;20027;-88
2023/07/28 13:06:25;;;;;;;5.45;2.95;;;;;;;;;;10614719;27;20051;-88
2023/07/28 13:11:26;;;;;;;2.20;1.85;;;;;;;;;;10611341;27;20072;-87
2023/07/28 13:16:27;;;;;;;2.20;2.00;;;;;;;;;;10617749;27;20451;-88
2023/07/28 13:21:28;;;;;;;2.15;1.75;;;;;;;;;;10623078;27;20027;-88
2023/07/28 13:26:30;;;;;;;2.00;1.80;;;;;;;;;;10611724;27;20507;-89
2023/07/28 13:31:31;;;;;;;3.25;2.10;;;;;;;;;;10656439;27;20052;-88
2023/07/28 13:36:32;;;;;;;2.47;1.75;;;;;;;;;;10627488;27;20184;-88
2023/07/28 13:41:33;;;;;;;5.18;1.95;;;;;;;;;;10609632;27;20019;-89
2023/07/28 13:46:35;;;;;;;3.08;2.10;;;;;;;;;;10610291;28;20046;-87
2023/07/28 13:51:36;;;;;;;3.63;2.22;;;;;;;;;;10610968;28;20023;-89
2023/07/28 13:56:37;;;;;;;3.03;2.20;;;;;;;;;;10609318;28;20090;-88
2023/07/28 14:01:38;;;;;;;5.88;4.60;;;;;;;;;;10610945;28;20035;-89
2023/07/28 14:06:39;;;;;;;2.45;2.25;;;;;;;;;;10611742;27;20031;-88
2023/07/28 14:11:40;;;;;;;2.78;2.20;;;;;;;;;;10621978;27;20114;-87
2023/07/28 14:16:42;;;;;;;2.10;1.77;;;;;;;;;;10624719;27;20472;-88
2023/07/28 14:21:43;;;;;;;2.60;1.70;;;;;;;;;;10658426;27;20029;-88
2023/07/28 14:26:44;;;;;;;4.63;4.22;;;;;;;;;;10639227;27;20044;-87
2023/07/28 14:31:45;;;;;;;1.65;1.40;;;;;;;;;;10616861;27;20023;-87
2023/07/28 14:36:46;;;;;;;3.53;1.95;;;;;;;;;;10615845;27;20494;-88
2023/07/28 14:41:47;;;;;;;3.90;1.80;;;;;;;;;;10617862;27;20050;-87
2023/07/28 14:46:48;;;;;;;2.08;1.48;;;;;;;;;;10620516;27;20034;-88
2023/07/28 14:51:49;;;;;;;4.63;2.17;;;;;;;;;;10616847;27;20188;-87
2023/07/28 14:56:50;;;;;;;1.92;1.30;;;;;;;;;;10615911;27;20382;-87
2023/07/28 15:01:51;;;;;;;1.10;1.00;;;;;;;;;;10614531;27;20114;-87
2023/07/28 15:06:52;;;;;;;1.83;1.30;;;;;;;;;;10635007;27;20039;-88
2023/07/28 15:11:53;;;;;;;1.75;1.27;;;;;;;;;;10620645;27;20105;-88
2023/07/28 15:16:55;;;;;;;3.72;2.58;;;;;;;;;;10617883;27;20044;-87
2023/07/28 15:21:56;;;;;;;1.90;1.70;;;;;;;;;;10615788;27;20145;-87
2023/07/28 15:26:57;;;;;;;2.67;1.48;;;;;;;;;;10616243;27;20394;-87
2023/07/28 15:31:59;;;;;;;2.33;1.50;;;;;;;;;;10614325;27;20163;-87
2023/07/28 15:37:03;;;;;;;1.90;1.50;;;;;;;;;;10614632;27;20502;-88
2023/07/28 15:42:04;;;;;;;2.42;1.77;;;;;;;;;;10633475;27;20015;-88
2023/07/28 15:47:05;;;;;;;2.13;1.52;;;;;;;;;;10621707;27;20067;-88
2023/07/28 15:52:06;;;;;;;3.50;2.33;;;;;;;;;;10632437;27;20495;-88
2023/07/28 15:57:07;;;;;;;2.17;1.20;;;;;;;;;;10631312;27;20111;-88
2023/07/28 16:02:11;;;;;;;2.85;1.38;;;;;;;;;;10614348;27;20015;-87
2023/07/28 16:07:12;;;;;;;3.10;1.55;;;;;;;;;;10613714;27;20038;-88
2023/07/28 16:12:13;;;;;;;2.83;1.48;;;;;;;;;;10623651;27;20039;-89
2023/07/28 16:17:14;;;;;;;3.58;1.55;;;;;;;;;;10615122;27;20035;-88
2023/07/28 16:22:17;;;;;;;2.45;1.40;;;;;;;;;;10614761;27;20196;-88
2023/07/28 16:27:18;;;;;;;2.17;1.52;;;;;;;;;;10615086;27;20038;-88
2023/07/28 16:32:19;;;;;;;4.28;1.77;;;;;;;;;;10613583;27;20118;-89
2023/07/28 16:37:20;;;;;;;1.90;1.50;;;;;;;;;;10611719;27;20032;-88
2023/07/28 16:42:21;;;;;;;2.08;1.50;;;;;;;;;;10615181;27;20023;-88
2023/07/28 16:47:22;;;;;;;2.15;1.40;;;;;;;;;;10614501;27;20023;-88
2023/07/28 16:52:24;;;;;;;3.35;1.35;;;;;;;;;;10624418;27;20082;-87
2023/07/28 16:57:25;;;;;;;1.75;1.45;;;;;;;;;;10659490;27;20027;-87
2023/07/28 17:02:26;;;;;;;3.80;1.63;;;;;;;;;;10623417;27;20110;-88
2023/07/28 17:07:27;;;;;;;2.67;1.40;;;;;;;;;;10611146;27;20113;-88
2023/07/28 17:12:28;;;;;;;4.63;2.55;;;;;;;;;;10610785;27;20084;-88
2023/07/28 17:17:31;;;;;;;2.17;1.85;;;;;;;;;;10612868;27;20133;-88
2023/07/28 17:22:34;;;;;;;2.40;1.80;;;;;;;;;;10614830;27;20068;-88
2023/07/28 17:27:35;;;;;;;3.80;1.75;;;;;;;;;;10614602;27;20029;-88
2023/07/28 17:32:37;;;;;;;2.63;1.70;;;;;;;;;;10610973;27;20030;-88
2023/07/28 17:37:37;;;;;;;1.70;1.58;;;;;;;;;;10630676;27;20136;-88
2023/07/28 17:42:39;;;;;;;2.00;1.70;;;;;;;;;;10646199;27;20019;-88
2023/07/28 17:47:40;;;;;;;2.78;1.77;;;;;;;;;;10608400;28;20027;-88
2023/07/28 17:52:43;;;;;;;1.90;1.50;;;;;;;;;;10610671;28;20416;-88
2023/07/28 17:57:44;;;;;;;2.22;1.98;;;;;;;;;;10607889;28;20116;-88
2023/07/28 18:02:45;;;;;;;3.80;2.22;;;;;;;;;;10606717;28;20023;-88
2023/07/28 18:07:46;;;;;;;2.58;2.28;;;;;;;;;;10605852;28;20052;-88
2023/07/28 18:12:47;;;;;;;2.70;2.00;;;;;;;;;;10606670;28;20047;-88
2023/07/28 18:17:48;;;;;;;2.10;1.90;;;;;;;;;;10606027;28;20125;-88
2023/07/28 18:22:49;;;;;;;1.90;1.55;;;;;;;;;;10606252;28;20126;-88
2023/07/28 18:27:50;;;;;;;2.50;2.10;;;;;;;;;;10606552;28;20038;-88
2023/07/28 18:32:51;;;;;;;2.25;2.00;;;;;;;;;;10606158;28;20031;-88
2023/07/28 18:37:52;;;;;;;2.60;2.30;;;;;;;;;;10605609;28;20030;-88
2023/07/28 18:42:53;;;;;;;3.70;2.63;;;;;;;;;;10606426;28;20054;-88
2023/07/28 18:47:54;;;;;;;3.05;2.17;;;;;;;;;;10605480;28;20029;-88
2023/07/28 18:52:55;;;;;;;3.55;1.63;;;;;;;;;;10608453;27;20472;-89
2023/07/28 18:57:56;;;;;;;3.22;1.83;;;;;;;;;;10614704;27;20117;-88
2023/07/28 19:02:57;;;;;;;2.63;1.83;;;;;;;;;;10615764;27;20525;-89
2023/07/28 19:07:59;;;;;;;1.73;1.38;;;;;;;;;;10613672;27;20096;-88
2023/07/28 19:13:00;;;;;;;1.83;1.50;;;;;;;;;;10614478;27;20510;-88
